Time,TemperatureF,DewpointF,PressureIn,WindDirection,WindDirectionDegrees,WindSpeedMPH,WindSpeedGustMPH,Humidity,HourlyPrecipIn,Conditions,Clouds,dailyrainin,SolarRadiationWatts/m^2,SoftwareType,DateUTC
2013-04-27 00:00:00,48.1,47.2,29.90,SW,232,5.6,11.9,96,0.00,,,-99.99,1.0,HOBO +U30 +Weather +,2013-04-27 07:00:00,
2013-04-27 00:05:00,48.1,47.2,29.89,SW,236,6.3,13.0,96,0.00,,,-99.99,1.0,HOBO +U30 +Weather +,2013-04-27 07:05:00,
2013-04-27 00:10:00,48.2,47.4,29.90,SW,232,7.4,17.0,96,0.00,,,-99.99,1.0,HOBO +U30 +Weather +,2013-04-27 07:10:00,
2013-04-27 00:15:00,48.2,47.3,29.90,SW,234,5.6,15.2,96,0.00,,,-99.99,1.0,HOBO +U30 +Weather +,2013-04-27 07:15:00,
2013-04-27 00:20:00,48.1,47.3,29.90,SW,227,6.7,13.0,96,0.00,,,-99.99,1.0,HOBO +U30 +Weather +,2013-04-27 07:20:00,
2013-04-27 00:25:00,48.1,47.4,29.90,SW,232,5.1,11.2,97,0.00,,,-99.99,1.0,HOBO +U30 +Weather +,2013-04-27 07:25:00,
2013-04-27 00:30:00,48.1,47.4,29.90,SW,232,6.3,17.4,97,0.00,,,-99.99,1.0,HOBO +U30 +Weather +,2013-04-27 07:30:00,
2013-04-27 00:35:00,48.2,47.5,29.90,SW,233,6.3,15.9,97,0.00,,,-99.99,1.0,HOBO +U30 +Weather +,2013-04-27 07:35:00,
2013-04-27 00:40:00,48.2,47.5,29.90,SW,236,5.1,13.0,97,0.00,,,-99.99,1.0,HOBO +U30 +Weather +,2013-04-27 07:40:00,
2013-04-27 00:45:00,48.0,47.3,29.90,WSW,240,4.5,8.9,97,0.00,,,-99.99,1.0,HOBO +U30 +Weather +,2013-04-27 07:45:00,
2013-04-27 00:50:00,47.9,47.2,29.90,WSW,240,4.5,10.7,97,0.00,,,-99.99,1.0,HOBO +U30 +Weather +,2013-04-27 07:50:00,
2013-04-27 00:55:00,47.7,47.0,29.90,WSW,239,5.1,9.6,97,0.00,,,-99.99,1.0,HOBO +U30 +Weather +,2013-04-27 07:55:00,
2013-04-27 01:00:00,47.7,47.0,29.90,WSW,243,5.1,11.2,97,0.00,,,-99.99,1.0,HOBO +U30 +Weather +,2013-04-27 08:00:00,
2013-04-27 01:05:00,47.8,47.2,29.90,SW,227,7.8,14.1,97,0.00,,,-99.99,1.0,HOBO +U30 +Weather +,2013-04-27 08:05:00,
2013-04-27 01:10:00,48.1,47.5,29.90,SW,220,6.7,13.0,97,0.00,,,-99.99,1.0,HOBO +U30 +Weather +,2013-04-27 08:10:00,
2013-04-27 01:15:00,48.1,47.5,29.90,SW,232,4.0,8.9,97,0.00,,,-99.99,1.0,HOBO +U30 +Weather +,2013-04-27 08:15:00,
2013-04-27 01:20:00,48.1,47.5,29.90,SW,232,5.1,14.1,97,0.00,,,-99.99,1.0,HOBO +U30 +Weather +,2013-04-27 08:20:00,
2013-04-27 01:25:00,48.1,47.5,29.90,SW,229,4.5,10.1,97,0.00,,,-99.99,1.0,HOBO +U30 +Weather +,2013-04-27 08:25:00,
2013-04-27 01:30:00,47.9,47.3,29.90,SW,234,4.5,11.2,97,0.00,,,-99.99,1.0,HOBO +U30 +Weather +,2013-04-27 08:30:00,
2013-04-27 01:35:00,47.6,47.1,29.90,SW,227,6.3,13.0,97,0.00,,,-99.99,1.0,HOBO +U30 +Weather +,2013-04-27 08:35:00,
2013-04-27 01:40:00,47.5,47.0,29.90,SW,233,4.0,8.9,98,0.00,,,-99.99,1.0,HOBO +U30 +Weather +,2013-04-27 08:40:00,
2013-04-27 01:45:00,47.6,47.1,29.89,SW,225,4.5,10.7,98,0.00,,,-99.99,1.0,HOBO +U30 +Weather +,2013-04-27 08:45:00,
2013-04-27 01:50:00,47.6,47.1,29.89,SW,233,5.1,8.9,98,0.00,,,-99.99,1.0,HOBO +U30 +Weather +,2013-04-27 08:50:00,
2013-04-27 01:55:00,47.6,47.2,29.89,SW,236,4.5,11.2,98,0.00,,,-99.99,1.0,HOBO +U30 +Weather +,2013-04-27 08:55:00,
2013-04-27 02:00:00,47.7,47.3,29.89,SW,233,4.5,8.5,98,0.00,,,-99.99,1.0,HOBO +U30 +Weather +,2013-04-27 09:00:00,
2013-04-27 02:05:00,47.8,47.4,29.89,SW,233,4.0,11.9,98,0.00,,,-99.99,1.0,HOBO +U30 +Weather +,2013-04-27 09:05:00,
2013-04-27 02:10:00,47.6,47.2,29.89,WSW,246,4.0,7.8,98,0.00,,,-99.99,1.0,HOBO +U30 +Weather +,2013-04-27 09:10:00,
2013-04-27 02:15:00,47.4,47.0,29.89,SW,234,5.1,9.6,98,0.00,,,-99.99,1.0,HOBO +U30 +Weather +,2013-04-27 09:15:00,
2013-04-27 02:20:00,47.4,47.1,29.88,SW,236,4.0,8.9,98,0.00,,,-99.99,1.0,HOBO +U30 +Weather +,2013-04-27 09:20:00,
2013-04-27 02:25:00,47.5,47.3,29.88,SW,223,3.4,8.9,99,0.00,,,-99.99,1.0,HOBO +U30 +Weather +,2013-04-27 09:25:00,
2013-04-27 02:30:00,47.4,47.1,29.88,SW,236,2.9,10.1,98,0.00,,,-99.99,1.0,HOBO +U30 +Weather +,2013-04-27 09:30:00,
2013-04-27 02:35:00,47.5,47.3,29.88,SW,230,4.0,11.9,99,0.00,,,-99.99,1.0,HOBO +U30 +Weather +,2013-04-27 09:35:00,
2013-04-27 02:40:00,47.6,47.4,29.88,SW,227,2.9,7.8,99,0.00,,,-99.99,1.0,HOBO +U30 +Weather +,2013-04-27 09:40:00,
2013-04-27 02:45:00,47.5,47.3,29.88,SW,234,4.0,10.7,99,0.00,,,-99.99,1.0,HOBO +U30 +Weather +,2013-04-27 09:45:00,
2013-04-27 02:50:00,47.5,47.3,29.88,SW,232,6.3,11.2,99,0.00,,,-99.99,1.0,HOBO +U30 +Weather +,2013-04-27 09:50:00,
2013-04-27 02:55:00,47.6,47.4,29.88,SW,218,2.2,8.9,99,0.00,,,-99.99,1.0,HOBO +U30 +Weather +,2013-04-27 09:55:00,
2013-04-27 03:00:00,47.5,47.3,29.88,SW,218,3.4,8.5,99,0.00,,,-99.99,1.0,HOBO +U30 +Weather +,2013-04-27 10:00:00,
2013-04-27 03:05:00,47.6,47.4,29.88,WSW,240,4.5,10.1,99,0.00,,,-99.99,1.0,HOBO +U30 +Weather +,2013-04-27 10:05:00,
2013-04-27 03:10:00,47.6,47.5,29.88,SW,226,4.5,9.6,99,0.00,,,-99.99,1.0,HOBO +U30 +Weather +,2013-04-27 10:10:00,
2013-04-27 03:15:00,47.6,47.4,29.88,SW,229,3.4,8.9,99,0.00,,,-99.99,1.0,HOBO +U30 +Weather +,2013-04-27 10:15:00,
2013-04-27 03:20:00,47.5,47.3,29.88,SW,232,4.5,8.9,99,0.00,,,-99.99,1.0,HOBO +U30 +Weather +,2013-04-27 10:20:00,
2013-04-27 03:25:00,47.6,47.4,29.88,SW,232,2.2,5.1,99,0.00,,,-99.99,1.0,HOBO +U30 +Weather +,2013-04-27 10:25:00,
2013-04-27 03:30:00,47.4,47.3,29.88,WSW,246,4.0,9.6,99,0.00,,,-99.99,1.0,HOBO +U30 +Weather +,2013-04-27 10:30:00,
2013-04-27 03:35:00,47.4,47.2,29.88,SW,226,5.1,9.6,99,0.00,,,-99.99,1.0,HOBO +U30 +Weather +,2013-04-27 10:35:00,
2013-04-27 03:40:00,47.3,47.2,29.88,SW,223,5.1,11.2,99,0.00,,,-99.99,1.0,HOBO +U30 +Weather +,2013-04-27 10:40:00,
2013-04-27 03:45:00,47.4,47.3,29.88,SW,222,6.3,13.0,99,0.00,,,-99.99,1.0,HOBO +U30 +Weather +,2013-04-27 10:45:00,
2013-04-27 03:50:00,47.5,47.4,29.88,SW,234,4.0,7.8,99,0.00,,,-99.99,1.0,HOBO +U30 +Weather +,2013-04-27 10:50:00,
2013-04-27 03:55:00,47.5,47.4,29.88,SW,229,2.9,8.5,99,0.00,,,-99.99,1.0,HOBO +U30 +Weather +,2013-04-27 10:55:00,
2013-04-27 04:00:00,47.4,47.4,29.88,SW,232,5.1,9.6,99,0.00,,,-99.99,1.0,HOBO +U30 +Weather +,2013-04-27 11:00:00,
2013-04-27 04:05:00,47.6,47.6,29.88,SW,223,2.9,6.3,99,0.00,,,-99.99,1.0,HOBO +U30 +Weather +,2013-04-27 11:05:00,
2013-04-27 04:10:00,47.5,47.4,29.88,SW,232,3.4,8.5,99,0.00,,,-99.99,1.0,HOBO +U30 +Weather +,2013-04-27 11:10:00,
2013-04-27 04:15:00,47.3,47.2,29.88,WSW,240,4.0,9.6,99,0.00,,,-99.99,1.0,HOBO +U30 +Weather +,2013-04-27 11:15:00,
2013-04-27 04:20:00,47.2,47.1,29.88,WSW,239,4.0,7.8,99,0.00,,,-99.99,1.0,HOBO +U30 +Weather +,2013-04-27 11:20:00,
2013-04-27 04:25:00,47.2,47.2,29.88,WSW,241,2.9,6.7,99,0.00,,,-99.99,1.0,HOBO +U30 +Weather +,2013-04-27 11:25:00,
2013-04-27 04:30:00,47.1,47.1,29.88,SW,229,3.4,8.5,99,0.00,,,-99.99,1.0,HOBO +U30 +Weather +,2013-04-27 11:30:00,
2013-04-27 04:35:00,47.2,47.3,29.88,SW,225,4.0,7.8,100,0.00,,,-99.99,1.0,HOBO +U30 +Weather +,2013-04-27 11:35:00,
2013-04-27 04:40:00,47.4,47.4,29.88,SW,233,3.4,8.5,100,0.00,,,-99.99,1.0,HOBO +U30 +Weather +,2013-04-27 11:40:00,
2013-04-27 04:45:00,47.3,47.3,29.88,SW,236,2.9,7.4,100,0.00,,,-99.99,1.0,HOBO +U30 +Weather +,2013-04-27 11:45:00,
2013-04-27 04:50:00,47.4,47.4,29.88,SW,230,2.2,6.3,100,0.00,,,-99.99,1.0,HOBO +U30 +Weather +,2013-04-27 11:50:00,
2013-04-27 04:55:00,47.3,47.3,29.88,SW,226,4.0,10.1,100,0.00,,,-99.99,1.0,HOBO +U30 +Weather +,2013-04-27 11:55:00,
2013-04-27 05:00:00,47.4,47.4,29.88,SW,233,2.9,6.7,100,0.00,,,-99.99,1.0,HOBO +U30 +Weather +,2013-04-27 12:00:00,
2013-04-27 05:05:00,47.3,47.3,29.88,WSW,239,1.8,5.6,100,0.00,,,-99.99,1.0,HOBO +U30 +Weather +,2013-04-27 12:05:00,
2013-04-27 05:10:00,47.3,47.3,29.88,WSW,251,0.7,3.4,100,0.00,,,-99.99,1.0,HOBO +U30 +Weather +,2013-04-27 12:10:00,
2013-04-27 05:15:00,47.2,47.2,29.88,SW,234,4.0,9.6,100,0.00,,,-99.99,1.0,HOBO +U30 +Weather +,2013-04-27 12:15:00,
2013-04-27 05:20:00,47.1,47.1,29.88,SW,220,4.5,7.8,100,0.00,,,-99.99,1.0,HOBO +U30 +Weather +,2013-04-27 12:20:00,
2013-04-27 05:25:00,47.1,47.1,29.88,SW,223,5.1,7.8,100,0.00,,,-99.99,1.0,HOBO +U30 +Weather +,2013-04-27 12:25:00,
2013-04-27 05:30:00,46.9,46.9,29.88,SW,229,4.5,7.8,100,0.00,,,-99.99,1.0,HOBO +U30 +Weather +,2013-04-27 12:30:00,
2013-04-27 05:35:00,46.9,46.9,29.88,SW,233,4.0,6.7,100,0.00,,,-99.99,1.0,HOBO +U30 +Weather +,2013-04-27 12:35:00,
2013-04-27 05:40:00,47.0,47.0,29.88,SW,222,4.5,8.5,100,0.00,,,-99.99,1.0,HOBO +U30 +Weather +,2013-04-27 12:40:00,
2013-04-27 05:45:00,47.1,47.1,29.88,SW,225,3.4,7.4,100,0.00,,,-99.99,1.0,HOBO +U30 +Weather +,2013-04-27 12:45:00,
2013-04-27 05:50:00,47.0,47.0,29.88,SW,226,4.5,8.9,100,0.00,,,-99.99,1.0,HOBO +U30 +Weather +,2013-04-27 12:50:00,
2013-04-27 05:55:00,46.9,46.9,29.88,SW,226,5.1,8.5,100,0.00,,,-99.99,1.0,HOBO +U30 +Weather +,2013-04-27 12:55:00,
2013-04-27 06:00:00,47.0,47.0,29.88,SW,218,4.0,7.8,100,0.00,,,-99.99,1.0,HOBO +U30 +Weather +,2013-04-27 13:00:00,
2013-04-27 06:05:00,47.1,47.1,29.89,SW,218,2.9,6.7,100,0.00,,,-99.99,1.0,HOBO +U30 +Weather +,2013-04-27 13:05:00,
2013-04-27 06:10:00,47.0,47.0,29.89,SW,233,2.2,6.7,100,0.00,,,-99.99,1.0,HOBO +U30 +Weather +,2013-04-27 13:10:00,
2013-04-27 06:15:00,46.9,46.9,29.89,SW,232,3.4,6.7,100,0.00,,,-99.99,1.0,HOBO +U30 +Weather +,2013-04-27 13:15:00,
2013-04-27 06:20:00,47.1,47.1,29.89,SW,226,4.0,7.4,100,0.00,,,-99.99,1.0,HOBO +U30 +Weather +,2013-04-27 13:20:00,
2013-04-27 06:25:00,46.9,46.9,29.89,SW,233,4.0,7.4,100,0.00,,,-99.99,2.0,HOBO +U30 +Weather +,2013-04-27 13:25:00,
2013-04-27 06:30:00,46.9,46.9,29.89,SW,223,4.0,7.4,100,0.00,,,-99.99,3.0,HOBO +U30 +Weather +,2013-04-27 13:30:00,
2013-04-27 06:35:00,46.9,46.9,29.89,SW,219,4.5,10.1,100,0.00,,,-99.99,4.0,HOBO +U30 +Weather +,2013-04-27 13:35:00,
2013-04-27 06:40:00,47.0,47.0,29.89,SW,220,4.5,9.6,100,0.00,,,-99.99,7.0,HOBO +U30 +Weather +,2013-04-27 13:40:00,
2013-04-27 06:45:00,47.1,47.1,29.89,SW,215,3.4,7.4,100,0.00,,,-99.99,9.0,HOBO +U30 +Weather +,2013-04-27 13:45:00,
2013-04-27 06:50:00,47.3,47.3,29.89,SSW,209,1.1,3.4,100,0.00,,,-99.99,11.0,HOBO +U30 +Weather +,2013-04-27 13:50:00,
2013-04-27 06:55:00,47.2,47.2,29.89,SSW,213,2.9,6.7,100,0.00,,,-99.99,13.0,HOBO +U30 +Weather +,2013-04-27 13:55:00,
2013-04-27 07:00:00,46.9,46.9,29.89,SW,223,4.0,7.4,100,0.00,,,-99.99,17.0,HOBO +U30 +Weather +,2013-04-27 14:00:00,
2013-04-27 07:05:00,47.0,47.0,29.89,SW,222,2.2,6.3,100,0.00,,,-99.99,23.0,HOBO +U30 +Weather +,2013-04-27 14:05:00,
2013-04-27 07:10:00,46.9,46.9,29.90,SW,227,2.9,5.6,100,0.00,,,-99.99,26.0,HOBO +U30 +Weather +,2013-04-27 14:10:00,
2013-04-27 07:15:00,46.9,46.9,29.90,WSW,251,1.8,5.6,100,0.00,,,-99.99,29.0,HOBO +U30 +Weather +,2013-04-27 14:15:00,
2013-04-27 07:20:00,46.8,46.8,29.90,WSW,258,0.7,4.5,100,0.00,,,-99.99,34.0,HOBO +U30 +Weather +,2013-04-27 14:20:00,
2013-04-27 07:25:00,47.0,47.0,29.90,WSW,247,0.7,4.5,100,0.00,,,-99.99,33.0,HOBO +U30 +Weather +,2013-04-27 14:25:00,
2013-04-27 07:30:00,46.8,46.8,29.90,WSW,246,1.8,4.5,100,0.00,,,-99.99,37.0,HOBO +U30 +Weather +,2013-04-27 14:30:00,
2013-04-27 07:35:00,47.1,47.1,29.90,SW,223,1.8,6.7,100,0.00,,,-99.99,38.0,HOBO +U30 +Weather +,2013-04-27 14:35:00,
2013-04-27 07:40:00,46.9,46.9,29.90,SW,230,3.4,6.7,100,0.00,,,-99.99,43.0,HOBO +U30 +Weather +,2013-04-27 14:40:00,
2013-04-27 07:45:00,47.3,47.3,29.90,SW,219,1.8,5.1,100,0.00,,,-99.99,48.0,HOBO +U30 +Weather +,2013-04-27 14:45:00,
2013-04-27 07:50:00,47.4,47.4,29.90,SSW,212,1.8,6.7,100,0.00,,,-99.99,52.0,HOBO +U30 +Weather +,2013-04-27 14:50:00,
2013-04-27 07:55:00,47.6,47.6,29.91,SW,215,2.2,5.6,100,0.00,,,-99.99,56.0,HOBO +U30 +Weather +,2013-04-27 14:55:00,
2013-04-27 08:00:00,47.5,47.5,29.91,SW,232,2.9,7.8,100,0.00,,,-99.99,59.0,HOBO +U30 +Weather +,2013-04-27 15:00:00,
2013-04-27 08:05:00,47.7,47.7,29.90,SW,220,2.9,6.7,100,0.00,,,-99.99,61.0,HOBO +U30 +Weather +,2013-04-27 15:05:00,
2013-04-27 08:10:00,47.9,47.9,29.91,SW,223,2.2,6.3,100,0.00,,,-99.99,61.0,HOBO +U30 +Weather +,2013-04-27 15:10:00,
2013-04-27 08:15:00,47.6,47.6,29.91,SW,223,4.5,7.4,100,0.00,,,-99.99,68.0,HOBO +U30 +Weather +,2013-04-27 15:15:00,
2013-04-27 08:20:00,47.6,47.6,29.91,SW,223,4.5,7.4,100,0.00,,,-99.99,73.0,HOBO +U30 +Weather +,2013-04-27 15:20:00,
2013-04-27 08:25:00,47.7,47.8,29.91,SSW,209,3.4,7.4,100,0.00,,,-99.99,88.0,HOBO +U30 +Weather +,2013-04-27 15:25:00,
2013-04-27 08:30:00,47.5,47.5,29.91,SW,222,3.4,6.7,100,0.00,,,-99.99,86.0,HOBO +U30 +Weather +,2013-04-27 15:30:00,
2013-04-27 08:35:00,47.3,47.3,29.91,SSW,213,4.0,9.6,100,0.00,,,-99.99,108.0,HOBO +U30 +Weather +,2013-04-27 15:35:00,
2013-04-27 08:40:00,47.4,47.4,29.91,SW,216,5.6,9.6,100,0.00,,,-99.99,137.0,HOBO +U30 +Weather +,2013-04-27 15:40:00,
2013-04-27 08:45:00,47.6,47.7,29.92,SSW,213,3.4,6.7,100,0.00,,,-99.99,128.0,HOBO +U30 +Weather +,2013-04-27 15:45:00,
2013-04-27 08:50:00,47.8,47.8,29.91,SW,223,5.6,10.1,100,0.00,,,-99.99,137.0,HOBO +U30 +Weather +,2013-04-27 15:50:00,
2013-04-27 08:55:00,48.2,48.2,29.91,SW,218,2.9,7.4,100,0.00,,,-99.99,144.0,HOBO +U30 +Weather +,2013-04-27 15:55:00,
2013-04-27 09:00:00,48.0,47.9,29.91,SW,215,4.0,7.8,99,0.00,,,-99.99,157.0,HOBO +U30 +Weather +,2013-04-27 16:00:00,
2013-04-27 09:05:00,48.7,48.6,29.91,SW,223,2.2,5.1,99,0.00,,,-99.99,167.0,HOBO +U30 +Weather +,2013-04-27 16:05:00,
2013-04-27 09:10:00,48.8,48.5,29.91,WSW,256,1.1,4.5,98,0.00,,,-99.99,172.0,HOBO +U30 +Weather +,2013-04-27 16:10:00,
2013-04-27 09:15:00,48.7,48.2,29.91,SW,225,3.4,7.4,98,0.00,,,-99.99,187.0,HOBO +U30 +Weather +,2013-04-27 16:15:00,
2013-04-27 09:20:00,49.1,48.5,29.91,SW,215,2.9,6.7,98,0.00,,,-99.99,203.0,HOBO +U30 +Weather +,2013-04-27 16:20:00,
2013-04-27 09:25:00,49.3,48.7,29.91,SW,216,2.9,6.7,97,0.00,,,-99.99,199.0,HOBO +U30 +Weather +,2013-04-27 16:25:00,
2013-04-27 09:30:00,49.3,48.5,29.91,SW,222,2.2,6.3,96,0.00,,,-99.99,204.0,HOBO +U30 +Weather +,2013-04-27 16:30:00,
2013-04-27 09:35:00,49.6,48.7,29.91,SW,215,1.1,5.6,96,0.00,,,-99.99,237.0,HOBO +U30 +Weather +,2013-04-27 16:35:00,
2013-04-27 09:40:00,50.1,49.0,29.91,SW,216,2.2,7.8,95,0.00,,,-99.99,248.0,HOBO +U30 +Weather +,2013-04-27 16:40:00,
2013-04-27 09:45:00,50.1,48.8,29.91,SSW,205,2.9,7.8,95,0.00,,,-99.99,253.0,HOBO +U30 +Weather +,2013-04-27 16:45:00,
2013-04-27 09:50:00,50.1,48.8,29.91,SSW,198,2.2,6.7,95,0.00,,,-99.99,254.0,HOBO +U30 +Weather +,2013-04-27 16:50:00,
2013-04-27 09:55:00,50.5,49.1,29.91,SW,222,2.2,7.8,94,0.00,,,-99.99,256.0,HOBO +U30 +Weather +,2013-04-27 16:55:00,
2013-04-27 10:00:00,50.2,48.6,29.91,SW,230,3.4,6.7,94,0.00,,,-99.99,308.0,HOBO +U30 +Weather +,2013-04-27 17:00:00,
2013-04-27 10:05:00,50.3,48.6,29.91,SW,225,2.9,7.4,93,0.00,,,-99.99,301.0,HOBO +U30 +Weather +,2013-04-27 17:05:00,
2013-04-27 10:10:00,50.0,48.3,29.91,SSW,213,5.1,10.1,93,0.00,,,-99.99,342.0,HOBO +U30 +Weather +,2013-04-27 17:10:00,
2013-04-27 10:15:00,50.7,49.2,29.91,SW,229,3.4,8.9,94,0.00,,,-99.99,303.0,HOBO +U30 +Weather +,2013-04-27 17:15:00,
2013-04-27 10:20:00,50.6,48.9,29.91,SW,229,5.1,8.5,94,0.00,,,-99.99,378.0,HOBO +U30 +Weather +,2013-04-27 17:20:00,
2013-04-27 10:25:00,51.5,49.6,29.91,SSW,212,4.0,7.4,93,0.00,,,-99.99,414.0,HOBO +U30 +Weather +,2013-04-27 17:25:00,
2013-04-27 10:30:00,50.8,48.6,29.91,SW,225,4.5,8.9,91,0.00,,,-99.99,527.0,HOBO +U30 +Weather +,2013-04-27 17:30:00,
2013-04-27 10:35:00,51.9,49.6,29.91,SW,218,4.5,8.9,91,0.00,,,-99.99,482.0,HOBO +U30 +Weather +,2013-04-27 17:35:00,
2013-04-27 10:40:00,51.2,48.7,29.91,SW,219,5.6,11.2,90,0.00,,,-99.99,424.0,HOBO +U30 +Weather +,2013-04-27 17:40:00,
2013-04-27 10:45:00,51.8,49.0,29.91,SW,222,6.3,10.7,90,0.00,,,-99.99,444.0,HOBO +U30 +Weather +,2013-04-27 17:45:00,
2013-04-27 10:50:00,52.8,49.9,29.91,SW,223,5.1,10.1,89,0.00,,,-99.99,574.0,HOBO +U30 +Weather +,2013-04-27 17:50:00,
2013-04-27 10:55:00,52.6,49.1,29.91,SSW,213,5.1,10.1,88,0.00,,,-99.99,666.0,HOBO +U30 +Weather +,2013-04-27 17:55:00,
2013-04-27 11:00:00,54.2,50.5,29.91,SW,226,4.5,7.4,87,0.00,,,-99.99,849.0,HOBO +U30 +Weather +,2013-04-27 18:00:00,
2013-04-27 11:05:00,53.8,49.4,29.91,SSW,213,5.6,10.1,84,0.00,,,-99.99,796.0,HOBO +U30 +Weather +,2013-04-27 18:05:00,
2013-04-27 11:10:00,54.4,49.7,29.91,SW,215,5.6,11.2,84,0.00,,,-99.99,526.0,HOBO +U30 +Weather +,2013-04-27 18:10:00,
2013-04-27 11:15:00,53.9,49.3,29.91,SW,219,6.7,11.2,84,0.00,,,-99.99,634.0,HOBO +U30 +Weather +,2013-04-27 18:15:00,
2013-04-27 11:20:00,54.4,49.8,29.91,SW,219,6.3,9.6,84,0.00,,,-99.99,822.0,HOBO +U30 +Weather +,2013-04-27 18:20:00,
2013-04-27 11:25:00,53.9,49.4,29.91,SW,227,6.3,9.6,84,0.00,,,-99.99,812.0,HOBO +U30 +Weather +,2013-04-27 18:25:00,
2013-04-27 11:30:00,53.7,49.0,29.91,SW,227,6.7,11.9,84,0.00,,,-99.99,838.0,HOBO +U30 +Weather +,2013-04-27 18:30:00,
2013-04-27 11:35:00,54.1,49.5,29.91,SW,227,6.3,10.7,84,0.00,,,-99.99,807.0,HOBO +U30 +Weather +,2013-04-27 18:35:00,
2013-04-27 11:40:00,54.2,49.5,29.91,SW,230,7.4,13.0,84,0.00,,,-99.99,804.0,HOBO +U30 +Weather +,2013-04-27 18:40:00,
2013-04-27 11:45:00,54.5,50.2,29.91,SW,223,7.4,13.0,85,0.00,,,-99.99,809.0,HOBO +U30 +Weather +,2013-04-27 18:45:00,
2013-04-27 11:50:00,53.9,48.8,29.91,SW,219,7.8,14.1,83,0.00,,,-99.99,816.0,HOBO +U30 +Weather +,2013-04-27 18:50:00,
2013-04-27 11:55:00,53.9,49.2,29.90,SW,226,7.4,12.3,83,0.00,,,-99.99,821.0,HOBO +U30 +Weather +,2013-04-27 18:55:00,
2013-04-27 12:00:00,54.8,50.1,29.90,SW,225,7.4,11.2,84,0.00,,,-99.99,824.0,HOBO +U30 +Weather +,2013-04-27 19:00:00,
2013-04-27 12:05:00,55.0,49.9,29.91,SW,227,6.7,11.2,83,0.00,,,-99.99,828.0,HOBO +U30 +Weather +,2013-04-27 19:05:00,
2013-04-27 12:10:00,54.7,49.5,29.90,SW,233,7.8,15.2,82,0.00,,,-99.99,833.0,HOBO +U30 +Weather +,2013-04-27 19:10:00,
2013-04-27 12:15:00,56.3,50.6,29.90,SW,229,6.7,11.9,81,0.00,,,-99.99,837.0,HOBO +U30 +Weather +,2013-04-27 19:15:00,
2013-04-27 12:20:00,54.9,49.0,29.90,SW,229,8.5,14.1,80,0.00,,,-99.99,842.0,HOBO +U30 +Weather +,2013-04-27 19:20:00,
2013-04-27 12:25:00,54.6,49.1,29.90,SW,225,9.6,15.2,81,0.00,,,-99.99,844.0,HOBO +U30 +Weather +,2013-04-27 19:25:00,
2013-04-27 12:30:00,55.0,49.2,29.90,SW,227,8.5,15.9,80,0.00,,,-99.99,846.0,HOBO +U30 +Weather +,2013-04-27 19:30:00,
2013-04-27 12:35:00,55.3,50.2,29.90,SW,225,9.6,15.9,82,0.00,,,-99.99,848.0,HOBO +U30 +Weather +,2013-04-27 19:35:00,
2013-04-27 12:40:00,56.4,50.3,29.90,SW,227,7.8,14.5,80,0.00,,,-99.99,852.0,HOBO +U30 +Weather +,2013-04-27 19:40:00,
2013-04-27 12:45:00,55.5,49.8,29.89,SW,225,8.9,14.1,81,0.00,,,-99.99,852.0,HOBO +U30 +Weather +,2013-04-27 19:45:00,
2013-04-27 12:50:00,55.7,49.8,29.89,SW,226,7.8,14.1,80,0.00,,,-99.99,852.0,HOBO +U30 +Weather +,2013-04-27 19:50:00,
2013-04-27 12:55:00,55.7,49.8,29.89,SW,229,8.9,15.2,80,0.00,,,-99.99,852.0,HOBO +U30 +Weather +,2013-04-27 19:55:00,
2013-04-27 13:00:00,55.3,49.9,29.89,SW,225,10.1,15.2,82,0.00,,,-99.99,851.0,HOBO +U30 +Weather +,2013-04-27 20:00:00,
2013-04-27 13:05:00,57.0,51.3,29.88,SW,225,8.9,14.1,81,0.00,,,-99.99,849.0,HOBO +U30 +Weather +,2013-04-27 20:05:00,
2013-04-27 13:10:00,55.4,49.5,29.88,SW,226,10.7,14.5,80,0.00,,,-99.99,848.0,HOBO +U30 +Weather +,2013-04-27 20:10:00,
2013-04-27 13:15:00,55.5,49.9,29.88,SW,226,10.7,16.3,81,0.00,,,-99.99,852.0,HOBO +U30 +Weather +,2013-04-27 20:15:00,
2013-04-27 13:20:00,55.3,49.5,29.88,SW,225,10.7,17.0,80,0.00,,,-99.99,849.0,HOBO +U30 +Weather +,2013-04-27 20:20:00,
2013-04-27 13:25:00,56.0,50.2,29.88,SW,225,10.1,15.2,80,0.00,,,-99.99,846.0,HOBO +U30 +Weather +,2013-04-27 20:25:00,
2013-04-27 13:30:00,56.5,50.7,29.87,SW,227,10.1,15.9,80,0.00,,,-99.99,844.0,HOBO +U30 +Weather +,2013-04-27 20:30:00,
2013-04-27 13:35:00,55.8,49.8,29.87,SW,222,11.2,15.2,80,0.00,,,-99.99,841.0,HOBO +U30 +Weather +,2013-04-27 20:35:00,
2013-04-27 13:40:00,57.7,51.7,29.87,SW,222,9.6,15.9,80,0.00,,,-99.99,837.0,HOBO +U30 +Weather +,2013-04-27 20:40:00,
2013-04-27 13:45:00,56.4,50.2,29.87,SW,223,11.2,15.9,79,0.00,,,-99.99,839.0,HOBO +U30 +Weather +,2013-04-27 20:45:00,
2013-04-27 13:50:00,56.0,50.2,29.87,SW,223,11.2,17.0,80,0.00,,,-99.99,834.0,HOBO +U30 +Weather +,2013-04-27 20:50:00,
2013-04-27 13:55:00,55.8,49.7,29.86,SW,227,10.1,19.2,79,0.00,,,-99.99,833.0,HOBO +U30 +Weather +,2013-04-27 20:55:00,
2013-04-27 14:00:00,55.1,49.8,29.86,SW,226,12.3,19.7,82,0.00,,,-99.99,827.0,HOBO +U30 +Weather +,2013-04-27 21:00:00,
2013-04-27 14:05:00,55.3,50.1,29.86,SW,225,11.2,19.2,82,0.00,,,-99.99,823.0,HOBO +U30 +Weather +,2013-04-27 21:05:00,
2013-04-27 14:10:00,55.6,50.0,29.86,SW,232,10.1,16.3,81,0.00,,,-99.99,818.0,HOBO +U30 +Weather +,2013-04-27 21:10:00,
2013-04-27 14:15:00,54.9,49.6,29.86,SW,232,11.2,18.6,82,0.00,,,-99.99,812.0,HOBO +U30 +Weather +,2013-04-27 21:15:00,
2013-04-27 14:20:00,55.0,50.1,29.85,SW,233,11.9,21.5,83,0.00,,,-99.99,807.0,HOBO +U30 +Weather +,2013-04-27 21:20:00,
2013-04-27 14:25:00,54.8,49.7,29.85,SW,232,11.9,18.1,82,0.00,,,-99.99,803.0,HOBO +U30 +Weather +,2013-04-27 21:25:00,
2013-04-27 14:30:00,55.4,50.7,29.85,SW,232,12.3,18.1,83,0.00,,,-99.99,798.0,HOBO +U30 +Weather +,2013-04-27 21:30:00,
2013-04-27 14:35:00,56.1,51.2,29.85,SW,233,11.2,16.3,83,0.00,,,-99.99,797.0,HOBO +U30 +Weather +,2013-04-27 21:35:00,
2013-04-27 14:40:00,55.0,50.1,29.85,SW,232,12.3,19.7,83,0.00,,,-99.99,784.0,HOBO +U30 +Weather +,2013-04-27 21:40:00,
2013-04-27 14:45:00,56.4,51.5,29.85,SW,229,10.7,17.0,83,0.00,,,-99.99,783.0,HOBO +U30 +Weather +,2013-04-27 21:45:00,
2013-04-27 14:50:00,56.2,51.2,29.84,SW,229,11.2,17.4,83,0.00,,,-99.99,804.0,HOBO +U30 +Weather +,2013-04-27 21:50:00,
2013-04-27 14:55:00,55.6,50.9,29.84,SW,233,11.9,18.6,84,0.00,,,-99.99,733.0,HOBO +U30 +Weather +,2013-04-27 21:55:00,
2013-04-27 15:00:00,55.2,50.7,29.84,SW,232,11.9,19.7,84,0.00,,,-99.99,882.0,HOBO +U30 +Weather +,2013-04-27 22:00:00,
2013-04-27 15:05:00,55.0,50.8,29.84,WSW,237,11.2,18.6,85,0.00,,,-99.99,839.0,HOBO +U30 +Weather +,2013-04-27 22:05:00,
2013-04-27 15:10:00,54.5,50.4,29.84,SW,234,10.1,18.1,85,0.00,,,-99.99,662.0,HOBO +U30 +Weather +,2013-04-27 22:10:00,
2013-04-27 15:15:00,54.2,50.3,29.84,SW,236,11.2,20.4,86,0.00,,,-99.99,644.0,HOBO +U30 +Weather +,2013-04-27 22:15:00,
2013-04-27 15:20:00,55.0,50.8,29.83,SW,234,10.7,19.2,85,0.00,,,-99.99,563.0,HOBO +U30 +Weather +,2013-04-27 22:20:00,
2013-04-27 15:25:00,55.4,50.9,29.83,SW,229,10.1,17.4,84,0.00,,,-99.99,511.0,HOBO +U30 +Weather +,2013-04-27 22:25:00,
2013-04-27 15:30:00,55.0,50.4,29.83,SW,236,11.2,17.4,84,0.00,,,-99.99,709.0,HOBO +U30 +Weather +,2013-04-27 22:30:00,
2013-04-27 15:35:00,54.1,49.7,29.83,SW,230,13.4,19.7,84,0.00,,,-99.99,718.0,HOBO +U30 +Weather +,2013-04-27 22:35:00,
2013-04-27 15:40:00,55.3,50.5,29.83,SW,233,10.7,16.3,83,0.00,,,-99.99,698.0,HOBO +U30 +Weather +,2013-04-27 22:40:00,
2013-04-27 15:45:00,54.9,50.3,29.83,SW,232,12.3,19.7,84,0.00,,,-99.99,627.0,HOBO +U30 +Weather +,2013-04-27 22:45:00,
2013-04-27 15:50:00,55.4,50.9,29.82,SW,230,11.9,19.2,84,0.00,,,-99.99,718.0,HOBO +U30 +Weather +,2013-04-27 22:50:00,
2013-04-27 15:55:00,54.4,49.9,29.82,SW,232,11.2,20.8,84,0.00,,,-99.99,674.0,HOBO +U30 +Weather +,2013-04-27 22:55:00,
2013-04-27 16:00:00,54.4,50.1,29.82,SW,227,13.0,19.7,85,0.00,,,-99.99,646.0,HOBO +U30 +Weather +,2013-04-27 23:00:00,
2013-04-27 16:05:00,54.6,50.3,29.82,SW,232,12.3,18.6,85,0.00,,,-99.99,631.0,HOBO +U30 +Weather +,2013-04-27 23:05:00,
2013-04-27 16:10:00,54.4,50.4,29.82,SW,234,12.3,19.2,86,0.00,,,-99.99,489.0,HOBO +U30 +Weather +,2013-04-27 23:10:00,
2013-04-27 16:15:00,54.4,50.3,29.81,SW,232,11.9,21.9,86,0.00,,,-99.99,623.0,HOBO +U30 +Weather +,2013-04-27 23:15:00,
2013-04-27 16:20:00,54.6,50.4,29.81,WSW,239,10.7,20.8,85,0.00,,,-99.99,603.0,HOBO +U30 +Weather +,2013-04-27 23:20:00,
2013-04-27 16:25:00,53.9,49.9,29.81,SW,234,11.2,21.5,86,0.00,,,-99.99,633.0,HOBO +U30 +Weather +,2013-04-27 23:25:00,
2013-04-27 16:30:00,53.7,50.0,29.81,WSW,241,11.2,20.4,87,0.00,,,-99.99,628.0,HOBO +U30 +Weather +,2013-04-27 23:30:00,
2013-04-27 16:35:00,54.2,50.5,29.80,WSW,237,10.7,20.8,87,0.00,,,-99.99,571.0,HOBO +U30 +Weather +,2013-04-27 23:35:00,
2013-04-27 16:40:00,53.8,49.8,29.81,WSW,237,11.2,17.0,86,0.00,,,-99.99,507.0,HOBO +U30 +Weather +,2013-04-27 23:40:00,
2013-04-27 16:45:00,53.3,49.5,29.80,WSW,241,10.7,19.2,87,0.00,,,-99.99,552.0,HOBO +U30 +Weather +,2013-04-27 23:45:00,
2013-04-27 16:50:00,53.3,49.8,29.80,SW,229,10.7,19.7,87,0.00,,,-99.99,544.0,HOBO +U30 +Weather +,2013-04-27 23:50:00,
2013-04-27 16:55:00,52.9,49.5,29.80,SW,236,11.2,19.2,88,0.00,,,-99.99,517.0,HOBO +U30 +Weather +,2013-04-27 23:55:00,
2013-04-27 17:00:00,52.5,49.2,29.80,SW,234,12.3,23.0,88,0.00,,,-99.99,563.0,HOBO +U30 +Weather +,2013-04-28 00:00:00,
2013-04-27 17:05:00,52.7,49.8,29.80,SW,232,10.1,17.0,89,0.00,,,-99.99,344.0,HOBO +U30 +Weather +,2013-04-28 00:05:00,
2013-04-27 17:10:00,52.0,49.1,29.80,SW,232,11.9,20.4,89,0.00,,,-99.99,432.0,HOBO +U30 +Weather +,2013-04-28 00:10:00,
2013-04-27 17:15:00,51.7,49.3,29.79,SW,234,12.3,21.9,91,0.00,,,-99.99,249.0,HOBO +U30 +Weather +,2013-04-28 00:15:00,
2013-04-27 17:20:00,51.7,49.4,29.80,SW,233,10.1,18.1,91,0.00,,,-99.99,266.0,HOBO +U30 +Weather +,2013-04-28 00:20:00,
2013-04-27 17:25:00,51.5,49.5,29.79,WSW,239,11.2,19.7,92,0.00,,,-99.99,226.0,HOBO +U30 +Weather +,2013-04-28 00:25:00,
2013-04-27 17:30:00,50.5,48.8,29.79,SW,234,14.1,23.7,93,0.00,,,-99.99,231.0,HOBO +U30 +Weather +,2013-04-28 00:30:00,
2013-04-27 17:35:00,50.4,48.9,29.79,SW,233,14.1,23.0,94,0.00,,,-99.99,257.0,HOBO +U30 +Weather +,2013-04-28 00:35:00,
2013-04-27 17:40:00,50.6,49.3,29.79,SW,233,11.9,18.6,95,0.00,,,-99.99,168.0,HOBO +U30 +Weather +,2013-04-28 00:40:00,
2013-04-27 17:45:00,50.7,49.3,29.79,SW,229,13.0,20.4,94,0.00,,,-99.99,152.0,HOBO +U30 +Weather +,2013-04-28 00:45:00,
2013-04-27 17:50:00,50.8,49.5,29.79,SW,230,13.0,20.8,95,0.00,,,-99.99,154.0,HOBO +U30 +Weather +,2013-04-28 00:50:00,
2013-04-27 17:55:00,50.3,48.8,29.79,SW,230,11.9,20.4,94,0.00,,,-99.99,154.0,HOBO +U30 +Weather +,2013-04-28 00:55:00,
2013-04-27 18:00:00,49.8,48.6,29.79,SW,234,14.5,20.8,95,0.00,,,-99.99,128.0,HOBO +U30 +Weather +,2013-04-28 01:00:00,
2013-04-27 18:05:00,50.0,48.9,29.79,SW,230,14.1,24.8,96,0.00,,,-99.99,136.0,HOBO +U30 +Weather +,2013-04-28 01:05:00,
2013-04-27 18:10:00,49.6,48.7,29.79,SW,227,15.2,24.2,96,0.00,,,-99.99,128.0,HOBO +U30 +Weather +,2013-04-28 01:10:00,
2013-04-27 18:15:00,49.9,49.1,29.79,SW,230,12.3,21.5,97,0.00,,,-99.99,104.0,HOBO +U30 +Weather +,2013-04-28 01:15:00,
2013-04-27 18:20:00,49.9,49.0,29.79,SW,233,11.9,20.4,96,0.00,,,-99.99,97.0,HOBO +U30 +Weather +,2013-04-28 01:20:00,
2013-04-27 18:25:00,49.3,48.5,29.79,SW,232,13.0,20.8,97,0.00,,,-99.99,66.0,HOBO +U30 +Weather +,2013-04-28 01:25:00,
2013-04-27 18:30:00,49.2,48.6,29.79,SW,227,14.1,21.5,97,0.00,,,-99.99,57.0,HOBO +U30 +Weather +,2013-04-28 01:30:00,
2013-04-27 18:35:00,49.1,48.6,29.78,SW,230,12.3,19.2,98,0.00,,,-99.99,56.0,HOBO +U30 +Weather +,2013-04-28 01:35:00,
2013-04-27 18:40:00,48.9,48.6,29.78,SW,230,13.4,20.4,98,0.00,,,-99.99,44.0,HOBO +U30 +Weather +,2013-04-28 01:40:00,
2013-04-27 18:45:00,49.3,49.0,29.78,SW,234,10.1,17.0,98,0.00,,,-99.99,43.0,HOBO +U30 +Weather +,2013-04-28 01:45:00,
2013-04-27 18:50:00,49.1,48.7,29.78,SW,230,12.3,18.6,98,0.00,,,-99.99,32.0,HOBO +U30 +Weather +,2013-04-28 01:50:00,
2013-04-27 18:55:00,49.0,48.7,29.78,SW,233,13.0,17.4,99,0.00,,,-99.99,27.0,HOBO +U30 +Weather +,2013-04-28 01:55:00,
2013-04-27 19:00:00,48.8,48.7,29.78,SW,229,13.4,21.5,99,0.00,,,-99.99,29.0,HOBO +U30 +Weather +,2013-04-28 02:00:00,
2013-04-27 19:05:00,48.7,48.6,29.78,SW,232,13.4,23.0,99,0.00,,,-99.99,28.0,HOBO +U30 +Weather +,2013-04-28 02:05:00,
2013-04-27 19:10:00,48.5,48.5,29.78,SW,232,13.0,21.5,99,0.00,,,-99.99,27.0,HOBO +U30 +Weather +,2013-04-28 02:10:00,
2013-04-27 19:15:00,48.5,48.5,29.78,SW,233,13.0,24.8,100,0.00,,,-99.99,22.0,HOBO +U30 +Weather +,2013-04-28 02:15:00,
2013-04-27 19:20:00,48.4,48.4,29.77,SW,233,11.9,19.7,100,0.00,,,-99.99,16.0,HOBO +U30 +Weather +,2013-04-28 02:20:00,
2013-04-27 19:25:00,48.3,48.3,29.77,SW,233,13.4,20.8,100,0.00,,,-99.99,12.0,HOBO +U30 +Weather +,2013-04-28 02:25:00,
2013-04-27 19:30:00,48.1,48.1,29.77,WSW,237,12.3,20.8,100,0.00,,,-99.99,12.0,HOBO +U30 +Weather +,2013-04-28 02:30:00,
2013-04-27 19:35:00,47.9,47.9,29.77,SW,230,11.9,20.8,100,0.00,,,-99.99,9.0,HOBO +U30 +Weather +,2013-04-28 02:35:00,
2013-04-27 19:40:00,48.0,48.0,29.76,SW,233,12.3,20.4,100,0.00,,,-99.99,7.0,HOBO +U30 +Weather +,2013-04-28 02:40:00,
2013-04-27 19:45:00,47.9,47.9,29.77,SW,232,12.3,20.4,100,0.00,,,-99.99,4.0,HOBO +U30 +Weather +,2013-04-28 02:45:00,
2013-04-27 19:50:00,48.0,48.0,29.77,SW,232,11.9,21.9,100,0.00,,,-99.99,3.0,HOBO +U30 +Weather +,2013-04-28 02:50:00,
2013-04-27 19:55:00,48.0,48.0,29.77,WSW,237,10.1,19.2,100,0.00,,,-99.99,2.0,HOBO +U30 +Weather +,2013-04-28 02:55:00,
2013-04-27 20:00:00,48.1,48.2,29.77,SW,236,10.1,17.0,100,0.00,,,-99.99,1.0,HOBO +U30 +Weather +,2013-04-28 03:00:00,
2013-04-27 20:05:00,48.0,48.0,29.77,SW,236,8.5,16.3,100,0.00,,,-99.99,1.0,HOBO +U30 +Weather +,2013-04-28 03:05:00,
2013-04-27 20:10:00,48.1,48.2,29.77,SW,230,8.9,19.2,100,0.00,,,-99.99,1.0,HOBO +U30 +Weather +,2013-04-28 03:10:00,
2013-04-27 20:15:00,48.2,48.2,29.77,SW,229,10.7,18.1,100,0.00,,,-99.99,1.0,HOBO +U30 +Weather +,2013-04-28 03:15:00,
2013-04-27 20:20:00,48.2,48.2,29.77,SW,230,11.9,20.4,100,0.00,,,-99.99,1.0,HOBO +U30 +Weather +,2013-04-28 03:20:00,
2013-04-27 20:25:00,48.2,48.2,29.77,SW,227,10.7,16.3,100,0.00,,,-99.99,1.0,HOBO +U30 +Weather +,2013-04-28 03:25:00,
2013-04-27 20:30:00,48.0,48.0,29.77,SW,225,12.3,19.7,100,0.00,,,-99.99,1.0,HOBO +U30 +Weather +,2013-04-28 03:30:00,
2013-04-27 20:35:00,48.3,48.3,29.77,SW,229,9.6,17.4,100,0.00,,,-99.99,1.0,HOBO +U30 +Weather +,2013-04-28 03:35:00,
2013-04-27 20:40:00,47.9,47.9,29.77,SW,233,11.9,18.1,100,0.00,,,-99.99,1.0,HOBO +U30 +Weather +,2013-04-28 03:40:00,
2013-04-27 20:45:00,48.0,48.0,29.77,SW,220,11.9,18.1,100,0.00,,,-99.99,1.0,HOBO +U30 +Weather +,2013-04-28 03:45:00,
2013-04-27 20:50:00,48.0,48.0,29.77,SW,227,10.1,17.0,100,0.00,,,-99.99,1.0,HOBO +U30 +Weather +,2013-04-28 03:50:00,
2013-04-27 20:55:00,48.2,48.2,29.78,SW,225,8.5,14.1,100,0.00,,,-99.99,1.0,HOBO +U30 +Weather +,2013-04-28 03:55:00,
2013-04-27 21:00:00,48.1,48.1,29.78,SW,220,8.5,14.1,100,0.00,,,-99.99,1.0,HOBO +U30 +Weather +,2013-04-28 04:00:00,
2013-04-27 21:05:00,48.1,48.1,29.78,SW,222,10.1,17.0,100,0.00,,,-99.99,1.0,HOBO +U30 +Weather +,2013-04-28 04:05:00,
2013-04-27 21:10:00,48.1,48.1,29.78,SW,223,10.1,17.4,100,0.00,,,-99.99,1.0,HOBO +U30 +Weather +,2013-04-28 04:10:00,
2013-04-27 21:15:00,48.2,48.2,29.78,SW,229,9.6,16.3,100,0.00,,,-99.99,1.0,HOBO +U30 +Weather +,2013-04-28 04:15:00,
2013-04-27 21:20:00,48.0,48.0,29.78,SW,225,9.6,15.9,100,0.00,,,-99.99,1.0,HOBO +U30 +Weather +,2013-04-28 04:20:00,
2013-04-27 21:25:00,47.8,47.8,29.78,SW,227,12.3,17.0,100,0.00,,,-99.99,1.0,HOBO +U30 +Weather +,2013-04-28 04:25:00,
2013-04-27 21:30:00,47.9,47.9,29.78,SW,223,10.7,15.9,100,0.00,,,-99.99,1.0,HOBO +U30 +Weather +,2013-04-28 04:30:00,
2013-04-27 21:35:00,48.1,48.1,29.78,SW,225,10.1,15.2,100,0.00,,,-99.99,1.0,HOBO +U30 +Weather +,2013-04-28 04:35:00,
2013-04-27 21:40:00,48.1,48.2,29.78,SW,227,9.6,16.3,100,0.00,,,-99.99,1.0,HOBO +U30 +Weather +,2013-04-28 04:40:00,
2013-04-27 21:45:00,48.2,48.2,29.78,SW,219,8.9,15.9,100,0.00,,,-99.99,1.0,HOBO +U30 +Weather +,2013-04-28 04:45:00,
2013-04-27 21:50:00,48.2,48.2,29.78,SW,229,10.1,16.3,100,0.00,,,-99.99,1.0,HOBO +U30 +Weather +,2013-04-28 04:50:00,
2013-04-27 21:55:00,48.4,48.4,29.79,SW,226,7.4,14.5,100,0.00,,,-99.99,1.0,HOBO +U30 +Weather +,2013-04-28 04:55:00,
2013-04-27 22:00:00,48.5,48.5,29.78,SW,225,6.3,10.7,99,0.00,,,-99.99,1.0,HOBO +U30 +Weather +,2013-04-28 05:00:00,
2013-04-27 22:05:00,48.5,48.5,29.78,SW,225,7.4,13.0,99,0.00,,,-99.99,1.0,HOBO +U30 +Weather +,2013-04-28 05:05:00,
2013-04-27 22:10:00,48.5,48.3,29.78,SW,227,10.1,17.4,99,0.00,,,-99.99,1.0,HOBO +U30 +Weather +,2013-04-28 05:10:00,
2013-04-27 22:15:00,48.5,48.3,29.78,SW,223,10.7,15.9,99,0.00,,,-99.99,1.0,HOBO +U30 +Weather +,2013-04-28 05:15:00,
2013-04-27 22:20:00,48.6,48.4,29.78,SW,229,10.1,15.9,98,0.00,,,-99.99,1.0,HOBO +U30 +Weather +,2013-04-28 05:20:00,
2013-04-27 22:25:00,48.6,48.3,29.78,SW,227,9.6,15.9,98,0.00,,,-99.99,1.0,HOBO +U30 +Weather +,2013-04-28 05:25:00,
2013-04-27 22:30:00,48.6,48.3,29.78,SW,225,10.7,17.0,98,0.00,,,-99.99,1.0,HOBO +U30 +Weather +,2013-04-28 05:30:00,
2013-04-27 22:35:00,48.9,48.5,29.78,SW,225,8.5,13.0,98,0.00,,,-99.99,1.0,HOBO +U30 +Weather +,2013-04-28 05:35:00,
2013-04-27 22:40:00,48.9,48.4,29.78,SW,219,8.9,15.2,98,0.00,,,-99.99,1.0,HOBO +U30 +Weather +,2013-04-28 05:40:00,
2013-04-27 22:45:00,48.9,48.4,29.78,SW,223,7.8,14.1,98,0.00,,,-99.99,1.0,HOBO +U30 +Weather +,2013-04-28 05:45:00,
2013-04-27 22:50:00,48.7,48.2,29.78,SW,218,10.1,17.4,97,0.00,,,-99.99,1.0,HOBO +U30 +Weather +,2013-04-28 05:50:00,
2013-04-27 22:55:00,48.8,48.4,29.78,SW,225,7.4,14.1,98,0.00,,,-99.99,1.0,HOBO +U30 +Weather +,2013-04-28 05:55:00,
2013-04-27 23:00:00,48.8,48.3,29.78,SW,219,9.6,14.1,97,0.00,,,-99.99,1.0,HOBO +U30 +Weather +,2013-04-28 06:00:00,
2013-04-27 23:05:00,49.0,48.5,29.78,SW,219,6.3,10.1,98,0.00,,,-99.99,1.0,HOBO +U30 +Weather +,2013-04-28 06:05:00,
2013-04-27 23:10:00,48.9,48.4,29.78,SW,220,7.8,17.0,97,0.00,,,-99.99,1.0,HOBO +U30 +Weather +,2013-04-28 06:10:00,
2013-04-27 23:15:00,48.8,48.3,29.78,SW,222,8.9,13.4,97,0.00,,,-99.99,1.0,HOBO +U30 +Weather +,2013-04-28 06:15:00,
2013-04-27 23:20:00,49.0,48.5,29.78,SW,220,7.4,14.5,97,0.00,,,-99.99,1.0,HOBO +U30 +Weather +,2013-04-28 06:20:00,
2013-04-27 23:25:00,49.0,48.4,29.77,SW,215,7.8,14.1,97,0.00,,,-99.99,1.0,HOBO +U30 +Weather +,2013-04-28 06:25:00,
2013-04-27 23:30:00,48.9,48.3,29.77,SW,219,8.5,14.1,97,0.00,,,-99.99,1.0,HOBO +U30 +Weather +,2013-04-28 06:30:00,
2013-04-27 23:35:00,48.9,48.3,29.77,SW,223,8.5,14.5,97,0.00,,,-99.99,1.0,HOBO +U30 +Weather +,2013-04-28 06:35:00,
2013-04-27 23:40:00,49.0,48.4,29.77,SW,218,6.7,11.9,97,0.00,,,-99.99,1.0,HOBO +U30 +Weather +,2013-04-28 06:40:00,
2013-04-27 23:45:00,49.1,48.4,29.77,SW,220,6.7,13.0,97,0.00,,,-99.99,1.0,HOBO +U30 +Weather +,2013-04-28 06:45:00,
2013-04-27 23:50:00,49.0,48.4,29.77,SW,227,6.7,13.0,97,0.00,,,-99.99,1.0,HOBO +U30 +Weather +,2013-04-28 06:50:00,
2013-04-27 23:55:00,49.0,48.3,29.77,SW,225,7.4,12.3,97,0.00,,,-99.99,1.0,HOBO +U30 +Weather +,2013-04-28 06:55:00,